Time;durP1;ratioP1;P1;durP2;ratioP2;P2;SDS_P1;SDS_P2;PMS_P1;PMS_P2;Temp;Humidity;BMP_temperature;BMP_pressure;BME280_temperature;BME280_humidity;BME280_pressure;Samples;Min_cycle;Max_cycle;Signal;HPM_P1;HPM_P2
2021/08/20 00:01:30;;;;;;;13.73;9.32;;;;;;;;;;5019316;28;20032;-82
2021/08/20 00:03:55;;;;;;;14.15;10.15;;;;;;;;;;5032061;28;20071;-82
2021/08/20 00:06:20;;;;;;;15.63;9.77;;;;;;;;;;5044522;28;20393;-82
2021/08/20 00:08:47;;;;;;;12.85;9.85;;;;;;;;;;5029937;28;20056;-82
2021/08/20 00:11:13;;;;;;;11.32;9.63;;;;;;;;;;5030671;28;20041;-82
2021/08/20 00:13:39;;;;;;;14.52;9.73;;;;;;;;;;5010616;28;20029;-82
2021/08/20 00:16:06;;;;;;;15.02;10.32;;;;;;;;;;5030868;28;20138;-82
2021/08/20 00:18:31;;;;;;;14.18;9.70;;;;;;;;;;5030102;28;20032;-82
2021/08/20 00:20:57;;;;;;;16.45;10.93;;;;;;;;;;5034873;28;20436;-82
2021/08/20 00:23:22;;;;;;;12.35;10.18;;;;;;;;;;5033567;28;20045;-82
2021/08/20 00:25:47;;;;;;;13.20;10.20;;;;;;;;;;5018327;28;20034;-82
2021/08/20 00:28:15;;;;;;;13.75;10.80;;;;;;;;;;5011034;28;20029;-82
2021/08/20 00:30:40;;;;;;;16.17;11.40;;;;;;;;;;5028498;28;20037;-82
2021/08/20 00:33:06;;;;;;;16.38;11.02;;;;;;;;;;5031479;28;20385;-82
2021/08/20 00:35:31;;;;;;;13.30;10.60;;;;;;;;;;5000183;28;20029;-82
2021/08/20 00:37:57;;;;;;;13.77;10.75;;;;;;;;;;5009424;28;20367;-82
2021/08/20 00:40:22;;;;;;;12.90;10.38;;;;;;;;;;5016125;28;20029;-82
2021/08/20 00:42:49;;;;;;;14.80;10.88;;;;;;;;;;4998280;28;20025;-82
2021/08/20 00:45:15;;;;;;;13.55;10.68;;;;;;;;;;5031314;28;20033;-83
2021/08/20 00:47:40;;;;;;;14.15;11.00;;;;;;;;;;5028216;28;20030;-82
2021/08/20 00:50:08;;;;;;;14.85;11.32;;;;;;;;;;5033731;28;20030;-82
2021/08/20 00:52:34;;;;;;;16.15;11.48;;;;;;;;;;5019180;28;20060;-82
2021/08/20 00:55:00;;;;;;;14.52;11.32;;;;;;;;;;5030222;28;20548;-82
2021/08/20 00:57:26;;;;;;;16.13;11.68;;;;;;;;;;5035292;28;20044;-82
2021/08/20 00:59:52;;;;;;;15.20;10.82;;;;;;;;;;5013395;28;20029;-82
2021/08/20 01:02:17;;;;;;;13.80;11.07;;;;;;;;;;5017966;28;20060;-82
2021/08/20 01:04:43;;;;;;;16.73;11.30;;;;;;;;;;5013296;28;20037;-82
2021/08/20 01:07:09;;;;;;;17.38;11.45;;;;;;;;;;5019229;28;20049;-82
2021/08/20 01:09:36;;;;;;;14.32;11.55;;;;;;;;;;5034745;28;20034;-82
2021/08/20 01:12:02;;;;;;;14.18;11.48;;;;;;;;;;5032739;28;20033;-82
2021/08/20 01:14:29;;;;;;;16.52;11.00;;;;;;;;;;5015383;28;20069;-82
2021/08/20 01:16:54;;;;;;;18.00;12.30;;;;;;;;;;5014799;28;20061;-82
2021/08/20 01:19:20;;;;;;;15.88;12.50;;;;;;;;;;5034103;28;20393;-82
2021/08/20 01:21:45;;;;;;;13.82;11.45;;;;;;;;;;5016078;28;20041;-82
2021/08/20 01:24:11;;;;;;;15.27;11.70;;;;;;;;;;5014420;28;20029;-82
2021/08/20 01:26:36;;;;;;;16.35;11.70;;;;;;;;;;5013513;28;20482;-82
2021/08/20 01:29:02;;;;;;;17.02;12.05;;;;;;;;;;5029348;28;20034;-82
2021/08/20 01:31:28;;;;;;;14.80;11.73;;;;;;;;;;5029327;28;20439;-82
2021/08/20 01:33:54;;;;;;;16.95;12.35;;;;;;;;;;5033269;28;20029;-82
2021/08/20 01:36:20;;;;;;;16.75;12.88;;;;;;;;;;5014170;28;20308;-82
2021/08/20 01:38:56;;;;;;;17.35;12.32;;;;;;;;;;5030910;28;20445;-82
2021/08/20 01:41:26;;;;;;;20.45;13.27;;;;;;;;;;5027081;28;20116;-82
2021/08/20 01:43:53;;;;;;;17.38;12.85;;;;;;;;;;5026258;28;20492;-82
2021/08/20 01:46:19;;;;;;;18.58;13.13;;;;;;;;;;5030004;28;20025;-82
2021/08/20 01:48:48;;;;;;;16.13;13.00;;;;;;;;;;5032442;28;20091;-82
2021/08/20 01:51:14;;;;;;;15.75;12.90;;;;;;;;;;5027149;28;20429;-82
2021/08/20 01:53:42;;;;;;;16.83;12.88;;;;;;;;;;5014154;28;20036;-82
2021/08/20 01:56:23;;;;;;;19.65;13.50;;;;;;;;;;5032482;28;20463;-82
2021/08/20 01:58:50;;;;;;;15.57;13.20;;;;;;;;;;5043211;28;20068;-82
2021/08/20 02:01:15;;;;;;;17.98;13.52;;;;;;;;;;5028668;28;20421;-82
2021/08/20 02:03:41;;;;;;;19.77;12.85;;;;;;;;;;5029468;28;20028;-82
2021/08/20 02:06:07;;;;;;;19.20;13.30;;;;;;;;;;5014595;28;20436;-82
2021/08/20 02:08:32;;;;;;;18.40;13.73;;;;;;;;;;5029624;28;20033;-82
2021/08/20 02:10:58;;;;;;;17.10;12.90;;;;;;;;;;4998881;28;20448;-82
2021/08/20 02:13:24;;;;;;;16.95;13.90;;;;;;;;;;5012071;28;20030;-82
2021/08/20 02:15:50;;;;;;;16.17;13.00;;;;;;;;;;5028991;28;20060;-82
2021/08/20 02:18:16;;;;;;;17.38;13.38;;;;;;;;;;5011226;28;20116;-82
2021/08/20 02:20:42;;;;;;;18.58;12.63;;;;;;;;;;5032054;28;20428;-82
2021/08/20 02:23:09;;;;;;;17.33;13.10;;;;;;;;;;5047125;28;20036;-82
2021/08/20 02:25:34;;;;;;;18.30;13.30;;;;;;;;;;5025381;28;20037;-82
2021/08/20 02:28:00;;;;;;;16.05;12.95;;;;;;;;;;5027205;28;20053;-82
2021/08/20 02:30:25;;;;;;;18.40;12.75;;;;;;;;;;5014155;28;20037;-82
2021/08/20 02:32:51;;;;;;;21.25;12.88;;;;;;;;;;5009550;28;20033;-82
2021/08/20 02:35:16;;;;;;;16.70;12.85;;;;;;;;;;5026192;28;20076;-82
2021/08/20 02:37:42;;;;;;;22.52;12.75;;;;;;;;;;5014629;28;20041;-82
2021/08/20 02:40:08;;;;;;;20.42;13.43;;;;;;;;;;5026794;28;20041;-82
2021/08/20 02:42:33;;;;;;;17.20;13.38;;;;;;;;;;5002210;28;20030;-82
2021/08/20 02:44:59;;;;;;;18.75;13.50;;;;;;;;;;5013641;28;20043;-82
2021/08/20 02:47:24;;;;;;;17.30;13.02;;;;;;;;;;5027835;28;20034;-82
2021/08/20 02:49:49;;;;;;;19.52;13.82;;;;;;;;;;5006506;28;20026;-82
2021/08/20 02:52:15;;;;;;;18.55;13.82;;;;;;;;;;5029425;28;20035;-82
2021/08/20 02:54:40;;;;;;;18.13;13.65;;;;;;;;;;5013511;28;20029;-82
2021/08/20 02:57:06;;;;;;;19.98;14.18;;;;;;;;;;5018305;28;20112;-82
2021/08/20 02:59:31;;;;;;;17.23;13.18;;;;;;;;;;5025420;28;20039;-82
2021/08/20 03:01:58;;;;;;;19.40;13.15;;;;;;;;;;5029163;28;20353;-82
2021/08/20 03:04:24;;;;;;;20.73;13.48;;;;;;;;;;5026659;28;20096;-82
2021/08/20 03:06:50;;;;;;;19.40;13.80;;;;;;;;;;5012569;28;20389;-82
2021/08/20 03:09:17;;;;;;;19.90;13.60;;;;;;;;;;4994503;28;20065;-82
2021/08/20 03:11:43;;;;;;;19.80;13.98;;;;;;;;;;4996208;28;20040;-82
2021/08/20 03:14:08;;;;;;;19.65;14.00;;;;;;;;;;5023620;28;20461;-82
2021/08/20 03:16:34;;;;;;;21.30;13.80;;;;;;;;;;5026647;28;20025;-82
2021/08/20 03:18:59;;;;;;;19.23;13.93;;;;;;;;;;4995706;28;20478;-82
2021/08/20 03:21:26;;;;;;;15.70;12.18;;;;;;;;;;5043083;28;20441;-82
2021/08/20 03:23:51;;;;;;;18.52;13.48;;;;;;;;;;5028448;28;20021;-82
2021/08/20 03:26:16;;;;;;;17.17;13.15;;;;;;;;;;5001266;28;20499;-82
2021/08/20 03:28:42;;;;;;;16.98;12.85;;;;;;;;;;5009583;28;20037;-82
2021/08/20 03:31:07;;;;;;;18.10;13.38;;;;;;;;;;5022901;28;20485;-82
2021/08/20 03:33:32;;;;;;;18.00;13.18;;;;;;;;;;4994211;28;20071;-82
2021/08/20 03:35:58;;;;;;;16.05;12.50;;;;;;;;;;5012253;28;20037;-82
2021/08/20 03:38:23;;;;;;;18.48;12.90;;;;;;;;;;5039515;28;20103;-82
2021/08/20 03:40:50;;;;;;;19.70;13.77;;;;;;;;;;5012491;28;20052;-82
2021/08/20 03:43:15;;;;;;;16.52;12.73;;;;;;;;;;5014608;28;20037;-82
2021/08/20 03:45:41;;;;;;;19.50;13.38;;;;;;;;;;5028228;28;20021;-82
2021/08/20 03:48:06;;;;;;;19.30;13.35;;;;;;;;;;5028413;28;20038;-82
2021/08/20 03:50:31;;;;;;;20.08;13.80;;;;;;;;;;5011471;28;20035;-82
2021/08/20 03:52:58;;;;;;;19.02;13.15;;;;;;;;;;5030278;28;20035;-82
2021/08/20 03:55:23;;;;;;;19.38;13.35;;;;;;;;;;5014733;28;20028;-82
2021/08/20 03:57:52;;;;;;;17.55;12.32;;;;;;;;;;5027913;28;20041;-82
2021/08/20 04:00:18;;;;;;;18.02;13.27;;;;;;;;;;5025050;28;20027;-82
2021/08/20 04:02:43;;;;;;;17.65;13.15;;;;;;;;;;5014038;28;20116;-82
2021/08/20 04:05:09;;;;;;;16.80;12.77;;;;;;;;;;5012781;28;20076;-82
2021/08/20 04:07:35;;;;;;;16.88;13.50;;;;;;;;;;5012393;28;20033;-82
2021/08/20 04:10:00;;;;;;;17.13;13.00;;;;;;;;;;5012863;28;20504;-82
2021/08/20 04:12:25;;;;;;;19.98;12.98;;;;;;;;;;5028853;28;20029;-82
2021/08/20 04:14:51;;;;;;;19.58;14.02;;;;;;;;;;5017193;28;20049;-82
2021/08/20 04:17:16;;;;;;;17.30;12.90;;;;;;;;;;5033057;28;20029;-82
2021/08/20 04:19:43;;;;;;;17.92;13.38;;;;;;;;;;5034738;28;20052;-82
2021/08/20 04:22:08;;;;;;;19.50;13.43;;;;;;;;;;5027189;28;20088;-82
2021/08/20 04:24:34;;;;;;;19.08;13.48;;;;;;;;;;5014764;28;20025;-82
2021/08/20 04:26:59;;;;;;;18.60;13.88;;;;;;;;;;5030579;28;20034;-82
2021/08/20 04:29:25;;;;;;;17.42;12.90;;;;;;;;;;5031399;28;20040;-82
2021/08/20 04:31:50;;;;;;;18.38;13.00;;;;;;;;;;5031592;28;20503;-82
2021/08/20 04:34:16;;;;;;;20.17;13.65;;;;;;;;;;5000779;28;20785;-82
2021/08/20 04:36:41;;;;;;;17.75;13.40;;;;;;;;;;5034689;28;20029;-81
2021/08/20 04:39:06;;;;;;;18.20;13.48;;;;;;;;;;5011265;28;20133;-82
2021/08/20 04:41:32;;;;;;;18.60;11.77;;;;;;;;;;5029256;28;20033;-82
2021/08/20 04:43:57;;;;;;;17.50;12.68;;;;;;;;;;5030089;28;20029;-82
2021/08/20 04:46:24;;;;;;;18.40;12.98;;;;;;;;;;5033726;28;20836;-82
2021/08/20 04:48:49;;;;;;;18.15;12.50;;;;;;;;;;5030937;28;20032;-82
2021/08/20 04:51:15;;;;;;;18.02;12.75;;;;;;;;;;5016243;28;20108;-82
2021/08/20 04:53:40;;;;;;;16.85;11.88;;;;;;;;;;5034145;28;20408;-82
2021/08/20 04:56:06;;;;;;;17.55;12.27;;;;;;;;;;4999404;28;20455;-82
2021/08/20 04:58:31;;;;;;;17.25;12.73;;;;;;;;;;5010472;28;20034;-82
2021/08/20 05:00:57;;;;;;;18.27;12.70;;;;;;;;;;5010773;28;20037;-82
2021/08/20 05:03:22;;;;;;;18.08;12.55;;;;;;;;;;5013611;28;20037;-82
2021/08/20 05:05:48;;;;;;;22.58;13.07;;;;;;;;;;5010828;28;20044;-82
2021/08/20 05:08:13;;;;;;;18.17;12.52;;;;;;;;;;5003151;28;20026;-82
2021/08/20 05:10:39;;;;;;;15.93;12.15;;;;;;;;;;5010723;28;20035;-82
2021/08/20 05:13:06;;;;;;;18.20;12.63;;;;;;;;;;5032181;28;20037;-82
2021/08/20 05:15:32;;;;;;;20.77;12.40;;;;;;;;;;5010701;28;20050;-82
2021/08/20 05:17:57;;;;;;;20.20;12.40;;;;;;;;;;5027677;28;20036;-82
2021/08/20 05:20:23;;;;;;;19.75;12.65;;;;;;;;;;5013000;28;20095;-82
2021/08/20 05:22:51;;;;;;;16.27;12.35;;;;;;;;;;5031567;28;20068;-82
2021/08/20 05:25:17;;;;;;;21.10;12.52;;;;;;;;;;5029737;28;20038;-82
2021/08/20 05:27:43;;;;;;;19.75;12.63;;;;;;;;;;5028402;28;20087;-82
2021/08/20 05:30:09;;;;;;;17.30;12.13;;;;;;;;;;5032294;28;20040;-82
2021/08/20 05:32:35;;;;;;;18.70;11.50;;;;;;;;;;5028311;28;20034;-82
2021/08/20 05:35:01;;;;;;;16.38;11.88;;;;;;;;;;5032065;28;20124;-82
2021/08/20 05:37:26;;;;;;;15.35;11.63;;;;;;;;;;5031919;28;20138;-82
2021/08/20 05:39:51;;;;;;;15.25;11.25;;;;;;;;;;5015945;28;20464;-82
2021/08/20 05:42:17;;;;;;;18.63;11.88;;;;;;;;;;5012013;28;20397;-82
2021/08/20 05:44:42;;;;;;;14.70;11.40;;;;;;;;;;5033923;28;20037;-82
2021/08/20 05:47:08;;;;;;;15.95;11.13;;;;;;;;;;5015632;28;20091;-82
2021/08/20 05:49:33;;;;;;;16.08;10.75;;;;;;;;;;5014070;28;20030;-82
2021/08/20 05:51:58;;;;;;;15.75;10.93;;;;;;;;;;5012308;28;20037;-82
2021/08/20 05:54:24;;;;;;;18.17;11.02;;;;;;;;;;5005585;28;22054;-82
2021/08/20 05:56:49;;;;;;;14.93;10.05;;;;;;;;;;4993195;28;20029;-82
2021/08/20 05:59:15;;;;;;;15.80;10.63;;;;;;;;;;4992766;28;20056;-82
2021/08/20 06:01:40;;;;;;;15.80;10.43;;;;;;;;;;5008611;28;20033;-82
2021/08/20 06:04:05;;;;;;;15.90;10.98;;;;;;;;;;4999513;28;20048;-82
2021/08/20 06:06:31;;;;;;;16.73;10.68;;;;;;;;;;5008877;28;20030;-82
2021/08/20 06:08:56;;;;;;;13.57;10.68;;;;;;;;;;5009006;28;20037;-82
2021/08/20 06:11:22;;;;;;;13.75;9.35;;;;;;;;;;5024200;28;20037;-82
2021/08/20 06:13:49;;;;;;;12.55;8.35;;;;;;;;;;4997111;28;20033;-82
2021/08/20 06:16:15;;;;;;;13.45;9.88;;;;;;;;;;5029375;28;20472;-82
2021/08/20 06:18:41;;;;;;;15.50;10.18;;;;;;;;;;4999277;28;20037;-82
2021/08/20 06:21:06;;;;;;;12.23;9.48;;;;;;;;;;5013136;28;20042;-82
2021/08/20 06:23:32;;;;;;;13.68;9.95;;;;;;;;;;5009239;28;20033;-81
2021/08/20 06:25:57;;;;;;;12.65;9.13;;;;;;;;;;5010336;28;20455;-82
2021/08/20 06:28:23;;;;;;;13.45;9.10;;;;;;;;;;5028233;28;20025;-82
2021/08/20 06:30:49;;;;;;;15.15;9.75;;;;;;;;;;5031175;28;20090;-82
2021/08/20 06:33:15;;;;;;;12.38;8.38;;;;;;;;;;5013247;28;20036;-82
2021/08/20 06:35:41;;;;;;;14.50;9.77;;;;;;;;;;5031352;28;20041;-82
2021/08/20 06:38:07;;;;;;;15.15;10.02;;;;;;;;;;5011006;28;20045;-82
2021/08/20 06:40:33;;;;;;;14.00;10.10;;;;;;;;;;5029309;28;20029;-81
2021/08/20 06:42:58;;;;;;;15.27;10.30;;;;;;;;;;5024047;28;20036;-82
2021/08/20 06:45:24;;;;;;;14.93;9.27;;;;;;;;;;5010520;28;20033;-82
2021/08/20 06:47:49;;;;;;;16.65;10.60;;;;;;;;;;5014991;28;20041;-82
2021/08/20 06:50:15;;;;;;;15.82;10.27;;;;;;;;;;5013889;28;20112;-81
2021/08/20 06:52:40;;;;;;;15.70;10.48;;;;;;;;;;5029482;28;20104;-82
2021/08/20 06:55:07;;;;;;;16.67;11.45;;;;;;;;;;5029786;28;20374;-82
2021/08/20 06:57:32;;;;;;;16.67;10.93;;;;;;;;;;5022511;28;20058;-82
2021/08/20 06:59:58;;;;;;;17.95;10.98;;;;;;;;;;5031714;28;20072;-82
2021/08/20 07:02:23;;;;;;;16.70;10.57;;;;;;;;;;5032431;28;20029;-82
2021/08/20 07:04:50;;;;;;;18.75;11.05;;;;;;;;;;5032018;28;20029;-82
2021/08/20 07:07:16;;;;;;;15.50;10.95;;;;;;;;;;5015996;28;20025;-82
2021/08/20 07:09:41;;;;;;;17.02;11.90;;;;;;;;;;5027392;28;20534;-82
2021/08/20 07:12:07;;;;;;;14.63;10.40;;;;;;;;;;5014382;28;20116;-82
2021/08/20 07:14:33;;;;;;;16.00;11.13;;;;;;;;;;5012007;28;20053;-82
2021/08/20 07:17:00;;;;;;;16.88;12.07;;;;;;;;;;5022512;28;20026;-82
2021/08/20 07:19:26;;;;;;;17.75;11.90;;;;;;;;;;5005041;28;20067;-82
2021/08/20 07:21:51;;;;;;;18.35;12.13;;;;;;;;;;5030234;28;20030;-82
2021/08/20 07:24:17;;;;;;;16.88;11.50;;;;;;;;;;5015301;28;20113;-82
2021/08/20 07:26:42;;;;;;;15.55;12.00;;;;;;;;;;5034914;28;20029;-82
2021/08/20 07:29:08;;;;;;;19.83;13.95;;;;;;;;;;5030804;28;20037;-82
2021/08/20 07:31:35;;;;;;;19.55;12.88;;;;;;;;;;5014325;28;20060;-82
2021/08/20 07:34:03;;;;;;;18.90;13.32;;;;;;;;;;5033174;28;20033;-82
2021/08/20 07:36:31;;;;;;;19.55;13.38;;;;;;;;;;5013811;28;20048;-82
2021/08/20 07:38:56;;;;;;;20.23;13.18;;;;;;;;;;5012481;28;20033;-83
2021/08/20 07:41:22;;;;;;;19.30;13.48;;;;;;;;;;5033822;28;20393;-82
2021/08/20 07:43:50;;;;;;;20.83;13.65;;;;;;;;;;5012279;28;20029;-82
2021/08/20 07:46:15;;;;;;;20.10;13.88;;;;;;;;;;5031822;28;20484;-82
2021/08/20 07:48:41;;;;;;;19.95;14.50;;;;;;;;;;5014385;28;20073;-82
2021/08/20 07:51:06;;;;;;;21.30;13.88;;;;;;;;;;5021244;28;20045;-82
2021/08/20 07:53:32;;;;;;;20.42;14.10;;;;;;;;;;5012354;28;20384;-82
2021/08/20 07:55:58;;;;;;;20.25;14.35;;;;;;;;;;5036349;28;20029;-82
2021/08/20 07:58:24;;;;;;;20.35;14.15;;;;;;;;;;5033620;28;20021;-82
2021/08/20 08:00:49;;;;;;;21.73;15.00;;;;;;;;;;5034043;28;20036;-82
2021/08/20 08:03:15;;;;;;;18.50;13.02;;;;;;;;;;5017290;28;20029;-82
2021/08/20 08:05:40;;;;;;;20.10;14.35;;;;;;;;;;5015615;28;20022;-82
2021/08/20 08:08:06;;;;;;;21.88;13.88;;;;;;;;;;5047391;28;20377;-82
2021/08/20 08:10:32;;;;;;;18.70;13.75;;;;;;;;;;5025772;28;20029;-81
2021/08/20 08:12:57;;;;;;;19.27;13.73;;;;;;;;;;5024991;28;20044;-82
2021/08/20 08:15:23;;;;;;;20.77;13.27;;;;;;;;;;5014042;28;20053;-82
2021/08/20 08:17:50;;;;;;;20.75;14.02;;;;;;;;;;5034068;28;21796;-81
2021/08/20 08:20:16;;;;;;;20.50;13.85;;;;;;;;;;5032901;28;20029;-82
2021/08/20 08:22:44;;;;;;;19.50;13.40;;;;;;;;;;5032139;28;20036;-83
2021/08/20 08:25:10;;;;;;;18.77;12.65;;;;;;;;;;5030064;28;20047;-83
2021/08/20 08:27:56;;;;;;;20.42;12.93;;;;;;;;;;5028682;28;20423;-82
2021/08/20 08:30:23;;;;;;;19.55;12.68;;;;;;;;;;5031677;28;20030;-82
2021/08/20 08:32:48;;;;;;;19.52;13.45;;;;;;;;;;5005300;28;20034;-82
2021/08/20 08:35:14;;;;;;;19.13;13.70;;;;;;;;;;5028237;28;20084;-83
2021/08/20 08:37:39;;;;;;;21.17;13.48;;;;;;;;;;5000209;28;20022;-83
2021/08/20 08:40:06;;;;;;;19.25;13.55;;;;;;;;;;5010442;28;20478;-83
2021/08/20 08:42:31;;;;;;;20.80;14.60;;;;;;;;;;5018450;28;20033;-83
2021/08/20 08:44:57;;;;;;;20.15;13.80;;;;;;;;;;5033010;28;20397;-83
2021/08/20 08:47:23;;;;;;;18.05;13.70;;;;;;;;;;5020194;28;20040;-83
2021/08/20 08:49:48;;;;;;;19.48;13.60;;;;;;;;;;5029776;28;20025;-83
2021/08/20 08:52:14;;;;;;;19.77;13.80;;;;;;;;;;5017114;28;20437;-83
2021/08/20 08:54:40;;;;;;;20.60;13.88;;;;;;;;;;5024482;28;20104;-83
2021/08/20 08:57:06;;;;;;;20.55;13.65;;;;;;;;;;5034029;28;20031;-83
2021/08/20 08:59:31;;;;;;;18.55;13.05;;;;;;;;;;5020796;28;20108;-83
2021/08/20 09:01:56;;;;;;;18.73;13.50;;;;;;;;;;5014068;28;20469;-83
2021/08/20 09:04:22;;;;;;;19.88;13.50;;;;;;;;;;4998850;28;20117;-83
2021/08/20 09:06:51;;;;;;;17.38;12.98;;;;;;;;;;4998622;28;20486;-83
2021/08/20 09:09:20;;;;;;;19.70;13.48;;;;;;;;;;5021917;28;20129;-82
2021/08/20 09:11:55;;;;;;;17.38;13.38;;;;;;;;;;5005727;28;20358;-83
2021/08/20 09:14:29;;;;;;;19.80;13.52;;;;;;;;;;5011019;28;20050;-83
2021/08/20 09:16:55;;;;;;;18.77;13.30;;;;;;;;;;5024264;28;20021;-83
2021/08/20 09:19:22;;;;;;;20.35;13.38;;;;;;;;;;5036275;28;20393;-83
2021/08/20 09:21:53;;;;;;;19.83;15.10;;;;;;;;;;5025837;28;20036;-83
2021/08/20 09:24:39;;;;;;;17.92;13.50;;;;;;;;;;5031717;28;20397;-83
2021/08/20 09:27:21;;;;;;;20.25;15.10;;;;;;;;;;5026294;28;20084;-83
2021/08/20 09:30:07;;;;;;;17.30;13.45;;;;;;;;;;5034538;28;20033;-83
2021/08/20 09:32:34;;;;;;;17.90;13.40;;;;;;;;;;5034375;28;20028;-83
2021/08/20 09:35:00;;;;;;;17.98;13.85;;;;;;;;;;5016694;28;20077;-83
2021/08/20 09:37:28;;;;;;;17.83;12.73;;;;;;;;;;5026824;28;20033;-83
2021/08/20 09:40:06;;;;;;;19.15;13.32;;;;;;;;;;5029391;28;20029;-83
2021/08/20 09:42:32;;;;;;;19.63;12.65;;;;;;;;;;5032718;28;20066;-83
2021/08/20 09:45:28;;;;;;;20.55;13.73;;;;;;;;;;5025797;28;20125;-83
2021/08/20 09:47:56;;;;;;;17.38;12.13;;;;;;;;;;5014608;28;20080;-83
2021/08/20 09:50:39;;;;;;;15.63;12.00;;;;;;;;;;5037555;28;20030;-83
2021/08/20 09:53:15;;;;;;;16.10;12.00;;;;;;;;;;5032101;28;20029;-81
2021/08/20 09:55:43;;;;;;;16.65;12.43;;;;;;;;;;5031585;28;20880;-81
2021/08/20 09:58:11;;;;;;;17.40;11.68;;;;;;;;;;5022454;28;20022;-81
2021/08/20 10:00:37;;;;;;;17.02;12.38;;;;;;;;;;5022667;28;20044;-81
2021/08/20 10:03:07;;;;;;;15.52;12.32;;;;;;;;;;5011770;28;20029;-81
2021/08/20 10:05:34;;;;;;;16.08;12.05;;;;;;;;;;5023346;28;20051;-81
2021/08/20 10:08:01;;;;;;;16.70;12.55;;;;;;;;;;5023478;28;20029;-81
2021/08/20 10:10:31;;;;;;;16.75;11.70;;;;;;;;;;5025718;28;20120;-82
2021/08/20 10:12:57;;;;;;;18.20;12.45;;;;;;;;;;5028789;28;20060;-81
2021/08/20 10:15:24;;;;;;;17.83;12.63;;;;;;;;;;5026169;28;20144;-81
2021/08/20 10:17:50;;;;;;;16.20;11.75;;;;;;;;;;5019233;28;20025;-81
2021/08/20 10:20:16;;;;;;;16.38;12.55;;;;;;;;;;5037158;28;20040;-82
2021/08/20 10:22:43;;;;;;;18.88;13.43;;;;;;;;;;5021046;28;20491;-82
2021/08/20 10:25:09;;;;;;;17.85;12.80;;;;;;;;;;5009149;28;20551;-81
2021/08/20 10:27:36;;;;;;;18.77;14.05;;;;;;;;;;5030396;28;20025;-82
2021/08/20 10:30:05;;;;;;;14.00;10.95;;;;;;;;;;5025167;28;20108;-81
2021/08/20 10:32:30;;;;;;;14.70;11.02;;;;;;;;;;5025139;28;20026;-81
2021/08/20 10:34:56;;;;;;;14.60;11.20;;;;;;;;;;5005263;28;20453;-81
2021/08/20 10:37:27;;;;;;;12.70;8.90;;;;;;;;;;5012018;28;20030;-81
2021/08/20 10:39:56;;;;;;;11.10;7.80;;;;;;;;;;5024911;28;20076;-82
2021/08/20 10:42:41;;;;;;;12.43;8.25;;;;;;;;;;5029180;28;20025;-81
2021/08/20 10:45:08;;;;;;;10.90;8.00;;;;;;;;;;5029313;28;20471;-82
2021/08/20 10:47:34;;;;;;;10.32;8.02;;;;;;;;;;5026606;28;20064;-81
2021/08/20 10:50:16;;;;;;;10.18;7.40;;;;;;;;;;5014175;28;20057;-81
2021/08/20 10:52:50;;;;;;;10.15;6.97;;;;;;;;;;5027007;28;20109;-81
2021/08/20 10:55:24;;;;;;;11.35;6.75;;;;;;;;;;5024809;28;20033;-81
2021/08/20 10:57:50;;;;;;;10.68;8.60;;;;;;;;;;5025467;28;20105;-82
2021/08/20 11:00:18;;;;;;;12.15;9.52;;;;;;;;;;5022619;28;20113;-82
2021/08/20 11:02:47;;;;;;;13.48;9.63;;;;;;;;;;5031420;28;20029;-81
2021/08/20 11:05:16;;;;;;;12.95;10.18;;;;;;;;;;5016430;28;20033;-82
2021/08/20 11:07:45;;;;;;;13.70;10.60;;;;;;;;;;5014486;28;20026;-82
2021/08/20 11:10:11;;;;;;;13.02;10.80;;;;;;;;;;5027399;28;20386;-82
2021/08/20 11:12:41;;;;;;;13.80;10.50;;;;;;;;;;5025170;28;20045;-82
2021/08/20 11:15:21;;;;;;;13.70;11.18;;;;;;;;;;5011843;28;20413;-82
2021/08/20 11:17:50;;;;;;;13.77;11.18;;;;;;;;;;5023834;28;20078;-82
2021/08/20 11:20:19;;;;;;;15.50;12.43;;;;;;;;;;5017899;28;20116;-81
2021/08/20 11:23:08;;;;;;;14.90;12.25;;;;;;;;;;5029298;28;20028;-82
2021/08/20 11:25:41;;;;;;;17.23;12.93;;;;;;;;;;5020386;28;20490;-82
2021/08/20 11:28:26;;;;;;;15.68;12.00;;;;;;;;;;5030390;28;20110;-82
2021/08/20 11:31:10;;;;;;;13.88;11.85;;;;;;;;;;5036194;28;20029;-82
2021/08/20 11:33:37;;;;;;;14.65;10.80;;;;;;;;;;5032032;28;20384;-81
2021/08/20 11:36:23;;;;;;;16.52;13.00;;;;;;;;;;5024155;28;20022;-81
2021/08/20 11:38:56;;;;;;;14.82;12.73;;;;;;;;;;5014486;28;20493;-82
2021/08/20 11:41:37;;;;;;;14.48;11.35;;;;;;;;;;5020991;28;20022;-82
2021/08/20 11:44:05;;;;;;;14.93;11.55;;;;;;;;;;5004947;28;20037;-82
2021/08/20 11:46:44;;;;;;;14.48;12.13;;;;;;;;;;5000624;28;20040;-82
2021/08/20 11:49:22;;;;;;;14.15;11.55;;;;;;;;;;5026793;28;20030;-82
2021/08/20 11:51:47;;;;;;;14.90;12.80;;;;;;;;;;5032760;28;20104;-82
2021/08/20 11:54:14;;;;;;;13.60;11.63;;;;;;;;;;5015306;28;20112;-82
2021/08/20 11:56:52;;;;;;;12.38;10.65;;;;;;;;;;5015094;28;20014;-82
2021/08/20 11:59:17;;;;;;;13.05;11.10;;;;;;;;;;5015727;28;20032;-82
2021/08/20 12:01:43;;;;;;;15.68;12.75;;;;;;;;;;5025925;28;20037;-82
2021/08/20 12:04:08;;;;;;;16.17;12.90;;;;;;;;;;5031749;28;20069;-82
2021/08/20 12:06:36;;;;;;;18.73;14.15;;;;;;;;;;5032991;28;20053;-82
2021/08/20 12:09:15;;;;;;;17.48;14.15;;;;;;;;;;5031287;28;20467;-82
2021/08/20 12:11:42;;;;;;;17.73;14.25;;;;;;;;;;5015043;28;20029;-82
2021/08/20 12:14:18;;;;;;;17.42;15.15;;;;;;;;;;5031021;28;20496;-82
2021/08/20 12:16:48;;;;;;;18.27;15.48;;;;;;;;;;5032675;28;20021;-82
2021/08/20 12:19:24;;;;;;;17.75;14.52;;;;;;;;;;5031537;28;20382;-82
2021/08/20 12:21:51;;;;;;;18.50;14.05;;;;;;;;;;5032680;28;20163;-81
2021/08/20 12:24:30;;;;;;;17.92;15.07;;;;;;;;;;5015116;28;20116;-82
2021/08/20 12:27:27;;;;;;;18.75;15.25;;;;;;;;;;5032715;28;20021;-82
2021/08/20 12:29:59;;;;;;;16.83;13.45;;;;;;;;;;5017619;28;20030;-82
2021/08/20 12:32:25;;;;;;;18.77;14.77;;;;;;;;;;5031158;28;20481;-82
2021/08/20 12:35:00;;;;;;;17.85;15.02;;;;;;;;;;4995869;28;20029;-82
2021/08/20 12:37:27;;;;;;;19.05;15.95;;;;;;;;;;5035035;28;20492;-82
2021/08/20 12:40:06;;;;;;;15.88;13.85;;;;;;;;;;5018446;28;20036;-82
2021/08/20 12:42:32;;;;;;;15.77;13.82;;;;;;;;;;5035796;28;20026;-82
2021/08/20 12:45:06;;;;;;;17.52;15.30;;;;;;;;;;5018860;28;20033;-82
2021/08/20 12:47:32;;;;;;;19.58;16.20;;;;;;;;;;5034656;28;20393;-82
2021/08/20 12:50:05;;;;;;;18.20;15.43;;;;;;;;;;5018271;28;20025;-82
2021/08/20 12:52:31;;;;;;;17.73;15.63;;;;;;;;;;5019822;28;20091;-82
2021/08/20 12:54:57;;;;;;;17.40;14.75;;;;;;;;;;5034704;28;20102;-82
2021/08/20 12:57:22;;;;;;;14.95;13.10;;;;;;;;;;5018954;28;20029;-82
2021/08/20 12:59:59;;;;;;;17.05;12.15;;;;;;;;;;5018294;28;20117;-83
2021/08/20 13:02:25;;;;;;;11.55;10.40;;;;;;;;;;5034407;28;20048;-83
2021/08/20 13:04:50;;;;;;;13.00;11.50;;;;;;;;;;5017907;28;20029;-83
2021/08/20 13:07:16;;;;;;;12.65;11.23;;;;;;;;;;5002460;28;20531;-82
2021/08/20 13:09:41;;;;;;;11.80;10.60;;;;;;;;;;5034222;28;20087;-82
2021/08/20 13:12:07;;;;;;;12.13;10.90;;;;;;;;;;5017783;28;20029;-82
2021/08/20 13:14:33;;;;;;;12.50;11.25;;;;;;;;;;5017507;28;20045;-82
2021/08/20 13:16:59;;;;;;;13.07;11.23;;;;;;;;;;4999851;28;20116;-84
2021/08/20 13:19:24;;;;;;;13.63;11.85;;;;;;;;;;5012008;28;20087;-83
2021/08/20 13:21:49;;;;;;;12.98;11.70;;;;;;;;;;5035826;28;20064;-83
2021/08/20 13:24:15;;;;;;;12.75;11.45;;;;;;;;;;4998053;28;20056;-83
2021/08/20 13:26:40;;;;;;;13.50;12.10;;;;;;;;;;4999785;28;20436;-83
2021/08/20 13:29:06;;;;;;;13.93;12.43;;;;;;;;;;5037281;28;20037;-83
2021/08/20 13:31:32;;;;;;;14.23;12.82;;;;;;;;;;4999477;28;20029;-83
2021/08/20 13:33:57;;;;;;;13.60;12.20;;;;;;;;;;5012890;28;20033;-83
2021/08/20 13:36:23;;;;;;;13.23;11.95;;;;;;;;;;5033727;28;20068;-83
2021/08/20 13:38:48;;;;;;;13.63;11.80;;;;;;;;;;5017114;28;20033;-83
2021/08/20 13:41:13;;;;;;;12.25;11.02;;;;;;;;;;5018029;28;20030;-83
2021/08/20 13:43:40;;;;;;;11.93;10.75;;;;;;;;;;4998133;28;20474;-83
2021/08/20 13:46:05;;;;;;;12.38;10.45;;;;;;;;;;5013814;28;20120;-83
2021/08/20 13:48:30;;;;;;;12.00;10.77;;;;;;;;;;5033510;28;20069;-83
2021/08/20 13:50:57;;;;;;;11.98;10.77;;;;;;;;;;5016981;28;20030;-83
2021/08/20 13:53:23;;;;;;;15.45;11.43;;;;;;;;;;5035279;28;20025;-83
2021/08/20 13:55:48;;;;;;;12.98;11.60;;;;;;;;;;5017029;28;20435;-83
2021/08/20 13:58:16;;;;;;;13.02;11.63;;;;;;;;;;5034144;28;20495;-82
2021/08/20 14:00:41;;;;;;;12.23;10.70;;;;;;;;;;5033410;28;20075;-82
2021/08/20 14:03:06;;;;;;;10.60;8.40;;;;;;;;;;5017220;28;20124;-82
2021/08/20 14:05:34;;;;;;;11.48;10.27;;;;;;;;;;5016797;28;20067;-82
2021/08/20 14:08:01;;;;;;;11.80;9.70;;;;;;;;;;5034426;28;20033;-82
2021/08/20 14:10:27;;;;;;;8.98;8.07;;;;;;;;;;5037480;28;20029;-83
2021/08/20 14:12:52;;;;;;;11.23;10.02;;;;;;;;;;5034428;28;20033;-83
2021/08/20 14:15:18;;;;;;;13.23;10.77;;;;;;;;;;5033322;28;20053;-83
2021/08/20 14:17:43;;;;;;;13.38;11.30;;;;;;;;;;5034151;28;20034;-83
2021/08/20 14:20:09;;;;;;;13.05;11.07;;;;;;;;;;5016907;28;20080;-83